Weather at Morristown Municipal Airport

Public forecast

Using degrees Fahrenheit for public forecast. Weather courtesy of forecast.io.

Current aviation weather report (METAR) for Morristown Municipal Airport

Retrieved 2021/05/11 10:45 UTC (32 minutes ago):

KMMU 111045Z 34003KT 10SM SCT250 08/08 A3006

Closest aviation forecast (TAF) to Morristown Municipal Airport

Closest forecast is Newark Liberty International Airport, 12.9 nm (23.9 km) ESE. Retrieved 2021/05/11 06:30 UTC (5 hours ago):

TAF KEWR 110529Z 1106/1212 27005KT P6SM BKN250 FM111000 29008KT P6SM FEW060 BKN250 FM111500 28013G19KT P6SM SCT060 SCT250 FM111800 27015G23KT P6SM BKN060 FM120100 29012KT P6SM SCT060 SCT250